createdAt,value
2023-03-10T00:08:44.578Z,13.50
2023-03-10T00:18:46.734Z,10.82
2023-03-10T00:28:48.400Z,8.77
2023-03-10T00:38:51.684Z,14.77
2023-03-10T00:48:53.526Z,8.53
2023-03-10T00:58:58.980Z,5.07
2023-03-10T01:09:01.266Z,5.90
2023-03-10T01:19:02.811Z,6.23
2023-03-10T01:29:04.340Z,6.13
2023-03-10T01:39:05.814Z,4.63
2023-03-10T01:49:31.687Z,4.90
2023-03-10T01:59:34.414Z,7.20
2023-03-10T02:09:41.054Z,6.47
2023-03-10T02:20:08.363Z,7.43
2023-03-10T02:30:18.716Z,8.37
2023-03-10T02:40:45.947Z,8.07
2023-03-10T02:50:47.896Z,6.17
2023-03-10T03:00:50.562Z,6.67
2023-03-10T03:10:52.472Z,8.35
2023-03-10T03:20:53.888Z,5.50
2023-03-10T03:30:55.541Z,8.37
2023-03-10T03:40:57.042Z,6.50
2023-03-10T03:50:58.518Z,5.65
2023-03-10T04:01:00.025Z,7.13
2023-03-10T04:11:01.466Z,5.70
2023-03-10T04:21:02.979Z,8.93
2023-03-10T04:31:04.725Z,10.97
2023-03-10T04:41:06.716Z,9.97
2023-03-10T04:51:11.270Z,9.98
2023-03-10T05:01:14.433Z,11.30
2023-03-10T05:11:16.121Z,17.13
2023-03-10T05:21:17.686Z,13.05
2023-03-10T05:31:25.880Z,9.25
2023-03-10T05:41:27.492Z,6.77
2023-03-10T05:51:28.966Z,8.20
2023-03-10T06:01:30.660Z,8.82
2023-03-10T06:11:33.246Z,9.07
2023-03-10T06:21:34.732Z,10.60
2023-03-10T06:31:36.177Z,10.60
2023-03-10T06:41:37.873Z,8.93
2023-03-10T06:51:39.883Z,12.10
2023-03-10T07:01:41.412Z,9.73
2023-03-10T07:11:42.793Z,11.00
2023-03-10T07:21:44.231Z,8.10
2023-03-10T07:31:45.708Z,10.93
2023-03-10T07:41:47.111Z,13.07
2023-03-10T07:51:48.738Z,11.30
2023-03-10T08:01:50.248Z,13.43
2023-03-10T08:11:51.585Z,11.75
2023-03-10T08:21:57.653Z,11.70
2023-03-10T08:31:59.128Z,8.67
2023-03-10T08:42:00.626Z,10.30
2023-03-10T08:52:02.170Z,9.57
2023-03-10T09:02:03.799Z,9.27
2023-03-10T09:12:07.072Z,20.90
2023-03-10T09:22:08.581Z,12.80
2023-03-10T09:32:10.320Z,12.00
2023-03-10T09:42:29.747Z,11.40
2023-03-10T09:52:52.322Z,13.07
2023-03-10T10:03:52.218Z,12.53
2023-03-10T10:14:22.408Z,10.67
2023-03-10T10:24:30.125Z,7.47
2023-03-10T10:34:32.489Z,6.82
2023-03-10T10:44:43.749Z,12.30
2023-03-10T10:54:54.190Z,12.27
2023-03-10T11:04:55.714Z,9.13
2023-03-10T11:15:24.616Z,9.97
2023-03-10T11:25:36.750Z,7.33
2023-03-10T11:35:46.310Z,6.47
2023-03-10T11:45:52.584Z,6.90
2023-03-10T11:55:55.820Z,9.63
2023-03-10T12:06:00.703Z,9.18
2023-03-10T12:16:04.732Z,9.00
2023-03-10T12:26:06.305Z,6.87
2023-03-10T12:36:36.609Z,5.90
2023-03-10T12:46:47.448Z,5.68
2023-03-10T12:57:02.584Z,6.70
2023-03-10T13:07:04.955Z,6.10
2023-03-10T13:17:19.143Z,5.82
2023-03-10T13:27:20.758Z,5.17
2023-03-10T13:37:22.631Z,5.43
2023-03-10T13:47:25.938Z,4.65
2023-03-10T13:57:32.732Z,4.60
2023-03-10T14:07:37.124Z,5.07
2023-03-10T14:17:39.366Z,6.50
2023-03-10T14:27:44.805Z,13.18
2023-03-10T14:37:48.014Z,5.63
2023-03-10T14:47:50.208Z,3.67
2023-03-10T14:57:58.432Z,5.38
2023-03-10T15:07:59.801Z,3.30
2023-03-10T15:18:01.191Z,4.40
2023-03-10T15:28:03.169Z,3.60
2023-03-10T15:38:04.594Z,3.20
2023-03-10T15:48:06.257Z,5.07
2023-03-10T15:58:09.576Z,5.20
2023-03-10T16:08:11.128Z,3.20
2023-03-10T16:18:12.996Z,3.47
2023-03-10T16:28:14.351Z,4.60
2023-03-10T16:38:15.704Z,4.45
2023-03-10T16:48:21.049Z,6.03
2023-03-10T16:58:22.466Z,5.53
2023-03-10T17:08:23.936Z,5.90
2023-03-10T17:18:25.663Z,7.10
2023-03-10T17:28:27.177Z,5.77
2023-03-10T17:38:28.664Z,5.53
2023-03-10T17:48:30.719Z,5.97
2023-03-10T17:58:32.930Z,6.40
2023-03-10T18:08:34.318Z,8.00
2023-03-10T18:18:35.827Z,5.78
2023-03-10T18:28:38.005Z,6.43
2023-03-10T18:38:39.520Z,5.80
2023-03-10T18:48:41.215Z,8.68
2023-03-10T18:58:42.637Z,7.50
2023-03-10T19:08:44.210Z,8.83
2023-03-10T19:18:45.758Z,5.03
2023-03-10T19:28:47.215Z,6.47
2023-03-10T19:38:49.585Z,5.30
2023-03-10T19:48:51.153Z,5.97
2023-03-10T19:58:52.783Z,4.53
2023-03-10T20:08:57.547Z,4.77
2023-03-10T20:18:59.562Z,4.73
2023-03-10T20:29:01.913Z,5.75
2023-03-10T20:39:03.397Z,5.25
2023-03-10T20:49:05.889Z,5.93
2023-03-10T20:59:07.358Z,4.80
2023-03-10T21:09:08.855Z,6.53
2023-03-10T21:19:10.265Z,6.30
2023-03-10T21:29:11.820Z,7.30
2023-03-10T21:39:13.404Z,7.05
2023-03-10T21:49:15.757Z,10.27
2023-03-10T21:59:17.381Z,6.13
2023-03-10T22:09:18.853Z,5.78
2023-03-10T22:19:20.271Z,5.22
2023-03-10T22:29:21.912Z,4.53
2023-03-10T22:39:23.923Z,7.97
2023-03-10T22:49:25.368Z,6.28
2023-03-10T22:59:26.866Z,5.60
2023-03-10T23:09:28.267Z,4.47
2023-03-10T23:19:29.825Z,5.65
2023-03-10T23:29:31.323Z,4.87
2023-03-10T23:39:32.730Z,3.40
2023-03-10T23:49:34.092Z,4.68
2023-03-10T23:59:35.539Z,6.65
